createdAt,value
2019-05-10T15:47:04.509Z,61.51
2019-05-10T15:49:38.287Z,63.14
2019-05-10T15:52:17.529Z,62.23
2019-05-10T15:54:47.168Z,65.78
2019-05-10T15:57:21.680Z,64.66
2019-05-10T15:59:59.014Z,67.00
2019-05-10T16:02:30.617Z,65.74
2019-05-10T16:05:03.856Z,67.61
2019-05-10T16:07:36.060Z,68.05
2019-05-10T16:10:09.456Z,67.39
2019-05-10T16:12:43.096Z,68.35
2019-05-10T16:15:20.194Z,67.96
2019-05-10T16:17:53.641Z,67.33
2019-05-10T16:20:25.204Z,69.44
2019-05-10T16:23:02.759Z,69.30
2019-05-10T16:25:41.557Z,70.07
2019-05-10T16:28:07.047Z,69.04
2019-05-10T16:30:40.042Z,69.51
2019-05-10T16:33:15.618Z,71.12
2019-05-10T16:35:49.532Z,71.21
2019-05-10T16:38:23.316Z,71.28
2019-05-10T16:40:58.863Z,71.97
2019-05-10T16:53:11.925Z,71.69
2019-05-10T16:55:45.460Z,71.26
2019-05-10T16:58:28.243Z,71.78
2019-05-10T17:01:05.755Z,72.07
2019-05-10T17:03:39.749Z,71.52
2019-05-10T17:06:23.790Z,71.53
2019-05-10T17:08:56.732Z,72.11
2019-05-10T17:11:30.753Z,72.04
2019-05-10T17:14:03.722Z,71.24
2019-05-10T17:16:49.590Z,72.03
2019-05-10T17:19:40.467Z,72.11
2019-05-10T17:22:29.049Z,72.08
2019-05-10T17:25:09.328Z,72.48
2019-05-10T17:27:42.467Z,72.03
2019-05-10T17:30:27.895Z,73.00
2019-05-10T17:33:04.064Z,71.92
2019-05-10T17:35:36.692Z,73.16
2019-05-10T17:38:19.233Z,72.47
2019-05-10T17:40:58.098Z,72.49
2019-05-10T17:43:31.103Z,72.76
2019-05-10T17:46:18.658Z,73.41
2019-05-10T17:48:51.602Z,73.18
2019-05-10T17:51:31.181Z,72.12
2019-05-10T17:54:04.089Z,72.31
2019-05-10T17:56:38.832Z,72.06
2019-05-10T17:59:12.435Z,71.39
2019-05-10T18:01:45.375Z,72.29
2019-05-10T18:04:24.908Z,71.85
2019-05-10T18:06:57.154Z,72.28
2019-05-10T18:09:32.228Z,70.50
2019-05-10T18:12:05.020Z,73.12
2019-05-10T18:14:50.306Z,73.74
2019-05-10T18:17:20.803Z,71.25
2019-05-10T18:19:56.645Z,73.57
2019-05-10T18:22:27.439Z,74.02
2019-05-10T18:25:00.504Z,73.23
2019-05-10T18:27:33.562Z,75.00
2019-05-10T18:30:14.630Z,74.85
2019-05-10T18:32:47.554Z,74.92
2019-05-10T18:35:30.586Z,74.14
2019-05-10T18:38:03.358Z,73.32
2019-05-10T18:40:36.061Z,75.82
2019-05-10T18:43:08.420Z,75.94
2019-05-10T18:45:43.996Z,73.86
2019-05-10T18:48:23.903Z,75.11
2019-05-10T18:50:56.140Z,74.04
2019-05-10T18:53:28.799Z,74.63
2019-05-10T18:56:01.844Z,74.60
2019-05-10T18:58:34.355Z,75.02
2019-05-10T19:01:15.193Z,75.10
2019-05-10T19:03:47.985Z,74.70
2019-05-10T19:06:24.083Z,74.21
2019-05-10T19:08:57.251Z,76.41
2019-05-10T19:11:38.876Z,75.63
2019-05-10T19:14:10.296Z,74.77
2019-05-10T19:16:50.135Z,76.06
2019-05-10T19:19:23.666Z,76.66
2019-05-10T19:21:56.815Z,75.66
2019-05-10T19:24:30.560Z,76.35
2019-05-10T19:27:12.945Z,76.56
2019-05-10T19:29:53.907Z,76.38
2019-05-10T19:32:29.732Z,76.28
2019-05-10T19:35:02.159Z,74.97
2019-05-10T19:37:34.840Z,74.12
2019-05-10T19:40:08.432Z,74.60
2019-05-10T19:42:42.925Z,75.20
2019-05-10T19:45:19.227Z,74.58
2019-05-10T19:47:49.954Z,75.00
2019-05-10T19:50:30.851Z,74.53
2019-05-10T19:52:58.308Z,73.64
2019-05-10T19:55:32.800Z,74.38
2019-05-10T19:58:05.742Z,72.66
2019-05-10T20:00:38.316Z,73.43
2019-05-10T20:03:11.038Z,72.69
2019-05-10T20:05:43.638Z,72.23
2019-05-10T20:08:16.234Z,72.83
2019-05-10T20:10:48.768Z,71.28
2019-05-10T20:13:21.691Z,72.61
2019-05-10T20:15:54.821Z,71.36
2019-05-10T20:18:29.059Z,72.20
2019-05-10T20:21:01.990Z,70.74
2019-05-10T20:23:35.233Z,71.87
2019-05-10T20:26:10.780Z,72.11
2019-05-10T20:28:53.811Z,72.19
2019-05-10T20:31:26.106Z,72.46
2019-05-10T20:33:58.799Z,72.01
2019-05-10T20:36:30.813Z,72.17
2019-05-10T20:39:03.439Z,70.87
2019-05-10T20:41:36.801Z,72.82
2019-05-10T20:44:09.002Z,71.54
2019-05-10T20:46:41.693Z,71.58
2019-05-10T20:49:20.802Z,71.67
2019-05-10T20:51:52.917Z,71.89
2019-05-10T20:54:25.726Z,71.60
2019-05-10T20:57:02.631Z,71.41
2019-05-10T20:59:35.793Z,72.17
2019-05-10T21:02:08.836Z,71.40
2019-05-10T21:04:45.020Z,72.48
2019-05-10T21:07:17.867Z,71.56
2019-05-10T21:09:50.955Z,71.95
2019-05-10T21:12:24.924Z,72.28
2019-05-10T21:15:00.645Z,71.65
2019-05-10T21:17:34.557Z,74.15
2019-05-10T21:20:09.937Z,72.57
2019-05-10T21:22:42.557Z,72.77
2019-05-10T21:25:14.753Z,72.47
2019-05-10T21:27:47.465Z,72.15
2019-05-10T21:30:23.285Z,73.25
2019-05-10T21:32:56.010Z,72.74
2019-05-10T21:35:28.441Z,73.43
2019-05-10T21:38:04.049Z,73.73
2019-05-10T21:40:42.654Z,75.90
2019-05-10T21:43:24.937Z,73.95
2019-05-10T21:46:04.875Z,74.61
2019-05-10T21:48:37.745Z,73.80
2019-05-10T21:51:16.698Z,73.92
2019-05-10T21:53:49.329Z,73.59
2019-05-10T21:56:23.161Z,73.29
2019-05-10T21:59:06.071Z,73.26
2019-05-10T22:01:38.497Z,72.98
2019-05-10T22:04:11.359Z,73.21
2019-05-10T22:06:51.132Z,72.43
2019-05-10T22:09:23.682Z,74.34
2019-05-10T22:11:59.430Z,72.02
2019-05-10T22:14:30.773Z,72.14
2019-05-10T22:17:03.593Z,71.97
2019-05-10T22:19:35.744Z,71.63
2019-05-10T22:22:09.009Z,71.96
2019-05-10T22:24:47.935Z,71.15
2019-05-10T22:27:24.134Z,72.54
2019-05-10T22:30:03.889Z,71.63
2019-05-10T22:32:36.512Z,72.11
2019-05-10T22:35:15.859Z,72.14
2019-05-10T22:37:56.532Z,72.36
2019-05-10T22:40:44.757Z,72.71
2019-05-10T22:43:17.532Z,72.49
2019-05-10T22:45:50.412Z,72.59
2019-05-10T22:48:23.184Z,71.48
2019-05-10T22:50:59.385Z,72.59
2019-05-10T22:53:35.768Z,71.89
2019-05-10T22:56:26.076Z,72.94
2019-05-10T22:59:04.712Z,72.32
2019-05-10T23:04:27.526Z,72.91
2019-05-10T23:07:00.193Z,72.68
2019-05-10T23:09:45.709Z,72.92
2019-05-10T23:12:18.260Z,73.43
2019-05-10T23:14:51.245Z,73.62
2019-05-10T23:17:24.158Z,72.37
2019-05-10T23:19:58.170Z,73.49
2019-05-10T23:22:31.417Z,72.74
2019-05-10T23:25:04.864Z,73.07
2019-05-10T23:27:37.311Z,72.78
2019-05-10T23:30:10.202Z,72.52
2019-05-10T23:32:43.183Z,72.73
2019-05-10T23:35:15.931Z,72.31
2019-05-10T23:37:48.506Z,72.88
2019-05-10T23:40:21.330Z,72.72
2019-05-10T23:42:53.812Z,72.92
2019-05-10T23:45:26.660Z,74.50
2019-05-10T23:48:03.320Z,74.25
2019-05-10T23:50:42.927Z,74.17
2019-05-10T23:53:22.993Z,73.37
2019-05-10T23:55:55.484Z,74.16
2019-05-10T23:58:28.640Z,74.57
